This is the latest recevied weather packets stored in our database for station/object vk4vs. If no packets are shown the sender has not sent any weather packets the latest 10 day(s).
| Time | Temp. | Humidity | Pressure | Rain* | Wind** | Luminosity | Snow |
|---|---|---|---|---|---|---|---|
| 1777966253 | 18.33° C | 77% | 1016.9 hPa | 0 mm | - | - | - |
| 1777964453 | 20° C | 70% | 1016.8 hPa | 0 mm | - | - | - |
| 1777962653 | 20° C | 68% | 1016.3 hPa | 0 mm | - | - | - |
| 1777960853 | 20.56° C | 66% | 1016.3 hPa | 0 mm | - | - | - |
| 1777959053 | 21.11° C | 64% | 1015.9 hPa | 0 mm | - | - | - |
| 1777957253 | 21.67° C | 62% | 1015.7 hPa | 0 mm | - | - | - |
| 1777955454 | 22.22° C | 62% | 1015.6 hPa | 0 mm | - | - | - |
| 1777953653 | 21.67° C | 64% | 1015.6 hPa | 0 mm | - | - | - |
| 1777951853 | 21.11° C | 64% | 1015.8 hPa | 0 mm | - | - | - |
| 1777950054 | 22.22° C | 62% | 1016 hPa | 0 mm | - | - | - |
| 1777948253 | 21.11° C | 65% | 1016.3 hPa | 0 mm | - | - | - |
| 1777946453 | 21.11° C | 68% | 1016.7 hPa | 0 mm | - | - | - |
| 1777944653 | 21.11° C | 68% | 1017.1 hPa | 0 mm | - | - | - |
| 1777942854 | 21.11° C | 68% | 1017.5 hPa | 0 mm | - | - | - |
| 1777941054 | 20.56° C | 74% | 1017.8 hPa | 0 mm | - | - | - |
| 1777939254 | 19.44° C | 80% | 1018.1 hPa | 0 mm | - | - | - |
| 1777937453 | 16.67° C | 98% | 1018.4 hPa | 0 mm | - | - | - |
| 1777935653 | 15.56° C | 99% | 1018.5 hPa | 0 mm | - | - | - |
| 1777933854 | 15.56° C | 99% | 1018.5 hPa | 0 mm | - | - | - |
| 1777932053 | 15° C | 100% | 1018.3 hPa | 0 mm | - | - | - |
| 1777930253 | 13.33° C | 99% | 1018 hPa | 0 mm | - | - | - |
| 1777928454 | 12.22° C | 99% | 1017.6 hPa | 0 mm | - | - | - |
| 1777926654 | 12.22° C | 98% | 1017.3 hPa | 0 mm | - | - | - |
| 1777924853 | 12.22° C | 98% | 1017.4 hPa | 0 mm | - | - | - |
| 1777923053 | 12.78° C | 98% | 1016.9 hPa | 0.25 mm | - | - | - |
* Rain latest hour (hover to see other rain measurements)
** Current wind speed in m/s (hover to see current wind gust speed)